Bookmark and Share
Track history (hours):
 

Blue Cat

Last reported at 2014-Apr-12 07:26 UTC. Time now 2014-Apr-16 22:31 UTC.
Position N 34°51' E 120°45'.

Length 190 m; draft 8.2 m.

Type: Cargo ship. MMSI: 240940000.

NotesDate/timePositionNaut miles runAvg speedWind from/ knotsBaromVisibWave heightAir tempDewpointWater temp
2014-Apr-12 07:26N 34°51' E 120°45'1112.4
2014-Apr-12 06:33N 34°52' E 120°31'1211.8
2014-Apr-12 05:33N 34°52' E 120°17'1211.6
2014-Apr-12 04:33N 34°52' E 120°03'1212.0
2014-Apr-12 03:33N 34°51' E 119°48'9 9.3
2014-Apr-12 02:33N 34°47' E 119°38'9 9.1
2014-Apr-12 01:33N 34°45' E 119°27'1 0.5
2014-Apr-12 00:32N 34°44' E 119°27'0 0.0
2014-Apr-11 23:32N 34°44' E 119°27'0 0.0
2014-Apr-11 22:32N 34°44' E 119°27'0 0.0
2014-Apr-11 21:32N 34°44' E 119°27'0 0.0
2014-Apr-11 20:32N 34°44' E 119°27'0 0.0
2014-Apr-11 19:32N 34°44' E 119°27'0 0.0
2014-Apr-11 18:32N 34°44' E 119°27'0 0.0
2014-Apr-11 17:32N 34°44' E 119°27'0 0.0
2014-Apr-11 16:32N 34°44' E 119°27'0 0.0
2014-Apr-11 15:32N 34°44' E 119°27'0 0.0
2014-Apr-11 14:32N 34°44' E 119°27'0 0.0
2014-Apr-11 13:32N 34°44' E 119°27'0 0.0
2014-Apr-11 12:32N 34°44' E 119°27'0 0.0
2014-Apr-11 11:26N 34°44' E 119°27'0 0.0
2014-Apr-11 10:32N 34°44' E 119°27'0 0.0
2014-Apr-11 09:26N 34°44' E 119°27'0 0.0
2014-Apr-11 08:32N 34°44' E 119°27'0 0.0
2014-Apr-11 07:32N 34°44' E 119°27'0 0.0
2014-Apr-11 06:32N 34°44' E 119°27'0 0.0
2014-Apr-11 05:32N 34°44' E 119°27'0 0.0
2014-Apr-11 04:32N 34°44' E 119°27'0 0.0
2014-Apr-11 03:32N 34°44' E 119°27'0 0.0
2014-Apr-11 02:32N 34°44' E 119°27'0 0.0
2014-Apr-11 01:32N 34°44' E 119°27'0 0.0
2014-Apr-11 00:32N 34°44' E 119°27'0 0.0
2014-Apr-10 23:32N 34°44' E 119°27'0 0.0
2014-Apr-10 22:32N 34°44' E 119°27'0 0.0
2014-Apr-10 21:32N 34°44' E 119°27'0 0.0
2014-Apr-10 20:32N 34°44' E 119°27'0 0.0
2014-Apr-10 19:32N 34°44' E 119°27'0 0.0
2014-Apr-10 18:32N 34°44' E 119°27'0 0.0
2014-Apr-10 17:32N 34°44' E 119°27'0 0.0
2014-Apr-10 16:32N 34°44' E 119°27'0 0.0
2014-Apr-10 15:32N 34°44' E 119°27'0 0.0
2014-Apr-10 14:32N 34°44' E 119°27'0 0.0
2014-Apr-10 13:32N 34°44' E 119°27'0 0.0
2014-Apr-10 12:32N 34°44' E 119°27'0 0.0
2014-Apr-10 11:32N 34°44' E 119°27'0 0.0
2014-Apr-10 10:32N 34°44' E 119°27'0 0.0
2014-Apr-10 09:32N 34°44' E 119°27'0 0.0
2014-Apr-10 08:32N 34°44' E 119°27'0 0.0
2014-Apr-10 07:20N 34°44' E 119°27'0 0.0
2014-Apr-10 06:32N 34°44' E 119°27'0 0.0
2014-Apr-10 05:32N 34°44' E 119°27'0 0.0
2014-Apr-10 04:32N 34°44' E 119°27'0 0.0
2014-Apr-10 03:32N 34°44' E 119°27'0 0.0
2014-Apr-10 02:32N 34°44' E 119°27'0 0.0
2014-Apr-10 01:32N 34°44' E 119°27'0 0.0
2014-Apr-10 00:32N 34°44' E 119°27'0 0.0
2014-Apr-09 23:32N 34°44' E 119°27'0 0.0
2014-Apr-09 22:32N 34°44' E 119°27'0 0.0
2014-Apr-09 21:32N 34°44' E 119°27'0 0.0
2014-Apr-09 20:32N 34°44' E 119°27'0 0.0
2014-Apr-09 19:32N 34°44' E 119°27'0 0.0
2014-Apr-09 18:29N 34°44' E 119°27'1 1.1
2014-Apr-09 17:33N 34°45' E 119°28'9 9.0
2014-Apr-09 16:33N 34°48' E 119°38'4 3.5
2014-Apr-09 15:33N 34°50' E 119°41'0 0.1
2014-Apr-09 14:25N 34°50' E 119°41'0 0.1
2014-Apr-09 13:31N 34°50' E 119°41'0 0.0
2014-Apr-09 12:25N 34°50' E 119°42'0 0.1
2014-Apr-09 11:31N 34°50' E 119°42'0 0.0
2014-Apr-09 10:31N 34°50' E 119°42'0 0.1
2014-Apr-09 09:31N 34°50' E 119°42'0 0.0
2014-Apr-09 08:31N 34°50' E 119°42'0 0.1
2014-Apr-09 07:31N 34°50' E 119°42'0 0.1
2014-Apr-09 06:25N 34°50' E 119°42'0 0.0
2014-Apr-09 05:19N 34°50' E 119°41'0 0.0
2014-Apr-09 04:28N 34°50' E 119°41'0 0.0
2014-Apr-09 02:13N 34°50' E 119°41'0 0.0
2014-Apr-09 01:28N 34°50' E 119°41'0 0.0
2014-Apr-09 00:28N 34°50' E 119°41'0 0.1
2014-Apr-08 23:31N 34°50' E 119°42'0 0.0
2014-Apr-08 22:31N 34°50' E 119°42'0 0.0
2014-Apr-08 21:25N 34°50' E 119°42'0 0.1
2014-Apr-08 20:28N 34°50' E 119°42'0 0.0
2014-Apr-08 19:31N 34°50' E 119°42'0 0.1
2014-Apr-08 18:31N 34°50' E 119°42'0 0.2
2014-Apr-08 17:31N 34°50' E 119°41'0 0.1
2014-Apr-08 16:28N 34°50' E 119°41'0 0.0
2014-Apr-08 15:22N 34°50' E 119°41'0 0.0
2014-Apr-08 14:19N 34°50' E 119°41'0 0.0
2014-Apr-08 13:28N 34°50' E 119°41'0 0.1
2014-Apr-08 12:31N 34°50' E 119°41'0 0.0
2014-Apr-08 11:16N 34°50' E 119°41'0 0.1
2014-Apr-08 10:31N 34°50' E 119°42'0 0.0
2014-Apr-08 09:28N 34°50' E 119°42'0 0.1
2014-Apr-08 08:31N 34°50' E 119°42'0 0.0
2014-Apr-08 07:28N 34°50' E 119°42'0 0.1
2014-Apr-08 06:31N 34°50' E 119°42'0 0.0
2014-Apr-08 05:28N 34°50' E 119°42'0 0.1
2014-Apr-08 04:31N 34°50' E 119°42'0 0.0
2014-Apr-08 03:31N 34°50' E 119°41'0 0.0
2014-Apr-08 02:22N 34°50' E 119°41'0 0.0
2014-Apr-08 01:29N 34°50' E 119°41'0 0.0
2014-Apr-08 00:33N 34°50' E 119°41'0 0.3
2014-Apr-07 23:33N 34°50' E 119°42'7 6.6
2014-Apr-07 22:33N 34°53' E 119°49'9 9.0
2014-Apr-07 21:33N 34°57' E 119°59'1010.2
2014-Apr-07 20:33N 34°59' E 120°11'1111.0
2014-Apr-07 19:33N 35°02' E 120°24'2511.2
2014-Apr-07 17:21N 35°08' E 120°53'911.0
2014-Apr-07 16:32N 35°10' E 121°04'1411.2
2014-Apr-07 15:15N 35°09' E 121°21'  
2014-Apr-05 02:07N 24°27' E 119°22'1213.9
2014-Apr-05 01:16N 24°20' E 119°13'2313.0
2014-Apr-04 23:29N 24°04' E 118°54'1312.4
2014-Apr-04 22:26N 23°56' E 118°43'1512.0
2014-Apr-04 21:11N 23°47' E 118°30'811.6
2014-Apr-04 20:27N 23°41' E 118°23'2712.1
2014-Apr-04 18:15N 23°24' E 118°00'912.8
2014-Apr-04 17:33N 23°18' E 117°53'1413.3
2014-Apr-04 16:30N 23°08' E 117°42'5811.7
2014-Apr-04 11:33N 22°32' E 116°53'37911.7
2014-Apr-03 03:05N 20°14' E 110°34'1110.9
2014-Apr-03 02:05N 20°11' E 110°23'610.5
2014-Apr-03 01:33N 20°10' E 110°17'1010.0
2014-Apr-03 00:33N 20°08' E 110°07'  

Dump ship's entire track history

sailing weather and tide predictions

Blue Cat — SVAR5 — position and weather